createdAt,value
2017-06-27T00:01:02.718Z,-59
2017-06-27T00:11:02.677Z,-58
2017-06-27T00:21:02.728Z,-59
2017-06-27T00:31:02.753Z,-58
2017-06-27T00:41:02.831Z,-57
2017-06-27T00:51:02.787Z,-56
2017-06-27T01:01:02.672Z,-57
2017-06-27T01:11:02.763Z,-57
2017-06-27T01:21:02.696Z,-56
2017-06-27T01:31:02.646Z,-57
2017-06-27T01:41:02.729Z,-56
2017-06-27T01:51:02.698Z,-56
2017-06-27T02:01:02.634Z,-54
2017-06-27T02:11:02.710Z,-56
2017-06-27T02:21:02.684Z,-56
2017-06-27T02:31:02.759Z,-56
2017-06-27T02:41:02.860Z,-57
2017-06-27T02:51:02.681Z,-57
2017-06-27T03:01:02.726Z,-58
2017-06-27T03:11:02.689Z,-58
2017-06-27T03:21:02.739Z,-57
2017-06-27T03:31:02.711Z,-57
2017-06-27T03:41:02.679Z,-57
2017-06-27T03:51:02.718Z,-57
2017-06-27T04:01:02.780Z,-57
2017-06-27T04:11:02.662Z,-58
2017-06-27T04:21:02.692Z,-56
2017-06-27T04:31:02.681Z,-57
2017-06-27T04:41:02.655Z,-58
2017-06-27T04:51:02.707Z,-57
2017-06-27T05:01:02.652Z,-56
2017-06-27T05:11:02.751Z,-57
2017-06-27T05:21:02.701Z,-55
2017-06-27T05:31:02.649Z,-64
2017-06-27T05:41:03.342Z,-64
2017-06-27T05:51:02.752Z,-65
2017-06-27T06:01:02.781Z,-64
2017-06-27T06:11:02.729Z,-67
2017-06-27T06:21:02.705Z,-67
2017-06-27T06:31:02.742Z,-66
2017-06-27T06:41:02.692Z,-67
2017-06-27T06:51:02.717Z,-66
2017-06-27T07:01:02.985Z,-67
2017-06-27T07:11:02.910Z,-68
2017-06-27T07:21:02.746Z,-67
2017-06-27T07:31:02.702Z,-67
2017-06-27T07:41:02.667Z,-66
2017-06-27T07:51:02.723Z,-65
2017-06-27T08:01:02.748Z,-66
2017-06-27T08:11:02.758Z,-67
2017-06-27T08:21:02.728Z,-58
2017-06-27T08:31:02.657Z,-57
2017-06-27T08:41:02.809Z,-52
2017-06-27T08:51:02.754Z,-56
2017-06-27T09:01:02.839Z,-55
2017-06-27T09:11:02.726Z,-60
2017-06-27T09:21:02.662Z,-55
2017-06-27T09:31:02.759Z,-57
2017-06-27T09:41:02.724Z,-63
2017-06-27T09:51:02.821Z,-60
2017-06-27T10:01:02.792Z,-61
2017-06-27T10:11:02.706Z,-61
2017-06-27T10:21:02.676Z,-62
2017-06-27T10:31:02.788Z,-59
2017-06-27T10:41:02.725Z,-59
2017-06-27T10:51:02.776Z,-62
2017-06-27T11:01:03.957Z,-61
2017-06-27T11:11:02.729Z,-60
2017-06-27T11:21:02.735Z,-60
2017-06-27T11:31:02.751Z,-61
2017-06-27T11:41:12.525Z,-62
2017-06-27T11:51:02.726Z,-59
2017-06-27T12:01:02.913Z,-61
2017-06-27T12:11:02.743Z,-61
2017-06-27T12:21:02.741Z,-61
2017-06-27T12:31:02.965Z,-63
2017-06-27T12:41:02.759Z,-62
2017-06-27T12:51:02.795Z,-59
2017-06-27T13:01:02.745Z,-62
2017-06-27T13:11:02.732Z,-62
2017-06-27T13:21:02.755Z,-62
2017-06-27T13:31:02.738Z,-59
2017-06-27T13:41:03.039Z,-60
2017-06-27T13:51:02.839Z,-61
2017-06-27T14:01:02.751Z,-62
2017-06-27T14:11:03.031Z,-62
2017-06-27T14:21:02.858Z,-61
2017-06-27T14:31:02.931Z,-62
2017-06-27T14:41:02.973Z,-60
2017-06-27T14:51:02.872Z,-62
2017-06-27T15:01:02.765Z,-62
2017-06-27T15:11:02.869Z,-62
2017-06-27T15:21:03.205Z,-63
2017-06-27T15:31:02.891Z,-64
2017-06-27T15:41:02.936Z,-64
2017-06-27T15:51:02.866Z,-63
2017-06-27T16:01:04.021Z,-63
2017-06-27T16:11:02.933Z,-63
2017-06-27T16:21:02.843Z,-62
2017-06-27T16:31:02.837Z,-63
2017-06-27T16:41:03.050Z,-62
2017-06-27T16:51:02.853Z,-60
2017-06-27T17:01:03.114Z,-62
2017-06-27T17:11:02.816Z,-62
2017-06-27T17:21:02.908Z,-62
2017-06-27T17:31:02.794Z,-63
2017-06-27T17:41:02.953Z,-63
2017-06-27T17:51:09.244Z,-59
2017-06-27T18:01:03.927Z,-59
2017-06-27T18:11:04.158Z,-59
2017-06-27T18:21:02.811Z,-58
2017-06-27T18:31:02.884Z,-60
2017-06-27T18:41:02.901Z,-66
2017-06-27T18:51:03.278Z,-66
2017-06-27T19:01:03.173Z,-65
2017-06-27T19:11:03.106Z,-65
2017-06-27T19:21:04.534Z,-68
2017-06-27T19:31:03.575Z,-70
2017-06-27T19:41:13.703Z,-60
2017-06-27T19:51:02.918Z,-64
2017-06-27T20:01:02.958Z,-67
2017-06-27T20:11:03.947Z,-65
2017-06-27T20:21:03.739Z,-72
2017-06-27T20:31:02.953Z,-61
2017-06-27T20:41:03.031Z,-66
2017-06-27T20:51:22.897Z,-63
2017-06-27T21:01:03.043Z,-68
2017-06-27T21:11:03.953Z,-62
2017-06-27T21:21:02.838Z,-65
2017-06-27T21:31:03.693Z,-62
2017-06-27T21:41:03.470Z,-66
2017-06-27T21:51:03.032Z,-64
2017-06-27T22:01:03.010Z,-57
2017-06-27T22:11:03.280Z,-57
2017-06-27T22:21:03.216Z,-55
2017-06-27T22:31:02.861Z,-57
2017-06-27T22:41:02.900Z,-57
2017-06-27T22:51:03.120Z,-58
2017-06-27T23:01:02.933Z,-57
2017-06-27T23:11:03.025Z,-58
2017-06-27T23:21:02.901Z,-56
2017-06-27T23:31:02.836Z,-56
2017-06-27T23:41:02.870Z,-58
2017-06-27T23:51:02.796Z,-57
